sensor_id;sensor_type;location;lat;lon;timestamp;pressure;altitude;pressure_sealevel;temperature;humidity
67373;BME280;54257;54.496;18.412;2023-04-07T00:01:23;100238.05;;;3.32;95.82
67373;BME280;54257;54.496;18.412;2023-04-07T00:03:50;100239.61;;;3.32;96.62
67373;BME280;54257;54.496;18.412;2023-04-07T00:06:17;100238.26;;;3.36;96.24
67373;BME280;54257;54.496;18.412;2023-04-07T00:08:44;100234.08;;;3.37;97.17
67373;BME280;54257;54.496;18.412;2023-04-07T00:11:12;100233.23;;;3.37;97.00
67373;BME280;54257;54.496;18.412;2023-04-07T00:13:39;100236.16;;;3.37;97.14
67373;BME280;54257;54.496;18.412;2023-04-07T00:16:06;100233.36;;;3.40;97.20
67373;BME280;54257;54.496;18.412;2023-04-07T00:18:33;100230.37;;;3.41;97.02
67373;BME280;54257;54.496;18.412;2023-04-07T00:21:00;100223.59;;;3.40;97.59
67373;BME280;54257;54.496;18.412;2023-04-07T00:23:27;100221.92;;;3.41;97.13
67373;BME280;54257;54.496;18.412;2023-04-07T00:25:55;100217.98;;;3.39;97.08
67373;BME280;54257;54.496;18.412;2023-04-07T00:28:22;100215.65;;;3.36;97.08
67373;BME280;54257;54.496;18.412;2023-04-07T00:30:49;100219.44;;;3.34;97.65
67373;BME280;54257;54.496;18.412;2023-04-07T00:33:16;100214.86;;;3.31;97.82
67373;BME280;54257;54.496;18.412;2023-04-07T00:35:46;100215.80;;;3.29;97.67
67373;BME280;54257;54.496;18.412;2023-04-07T00:38:13;100214.58;;;3.28;98.21
67373;BME280;54257;54.496;18.412;2023-04-07T00:40:40;100218.81;;;3.28;98.26
67373;BME280;54257;54.496;18.412;2023-04-07T00:43:07;100218.23;;;3.30;98.10
67373;BME280;54257;54.496;18.412;2023-04-07T00:45:35;100218.42;;;3.34;98.23
67373;BME280;54257;54.496;18.412;2023-04-07T00:48:03;100217.09;;;3.38;98.25
67373;BME280;54257;54.496;18.412;2023-04-07T00:50:31;100212.40;;;3.42;98.12
67373;BME280;54257;54.496;18.412;2023-04-07T00:52:58;100209.94;;;3.47;98.36
67373;BME280;54257;54.496;18.412;2023-04-07T00:55:29;100209.27;;;3.50;98.25
67373;BME280;54257;54.496;18.412;2023-04-07T00:57:56;100203.18;;;3.54;98.20
67373;BME280;54257;54.496;18.412;2023-04-07T01:00:25;100199.02;;;3.55;98.18
67373;BME280;54257;54.496;18.412;2023-04-07T01:03:00;100197.52;;;3.56;98.42
67373;BME280;54257;54.496;18.412;2023-04-07T01:05:41;100196.33;;;3.56;98.15
67373;BME280;54257;54.496;18.412;2023-04-07T01:13:37;100197.48;;;3.51;98.01
67373;BME280;54257;54.496;18.412;2023-04-07T01:16:10;100197.48;;;3.51;98.04
67373;BME280;54257;54.496;18.412;2023-04-07T01:18:39;100192.79;;;3.49;98.05
67373;BME280;54257;54.496;18.412;2023-04-07T01:21:12;100189.16;;;3.47;98.09
67373;BME280;54257;54.496;18.412;2023-04-07T01:24:02;100185.16;;;3.45;98.50
67373;BME280;54257;54.496;18.412;2023-04-07T01:26:36;100179.55;;;3.44;98.33
67373;BME280;54257;54.496;18.412;2023-04-07T01:31:57;100177.08;;;3.42;98.96
67373;BME280;54257;54.496;18.412;2023-04-07T01:34:28;100173.30;;;3.43;99.40
67373;BME280;54257;54.496;18.412;2023-04-07T01:36:57;100168.59;;;3.44;99.93
67373;BME280;54257;54.496;18.412;2023-04-07T01:39:26;100167.31;;;3.46;99.62
67373;BME280;54257;54.496;18.412;2023-04-07T01:41:55;100167.59;;;3.48;99.41
67373;BME280;54257;54.496;18.412;2023-04-07T01:44:25;100170.67;;;3.52;99.42
67373;BME280;54257;54.496;18.412;2023-04-07T01:46:54;100168.19;;;3.53;99.51
67373;BME280;54257;54.496;18.412;2023-04-07T01:49:23;100167.94;;;3.55;99.27
67373;BME280;54257;54.496;18.412;2023-04-07T01:51:52;100163.90;;;3.59;99.44
67373;BME280;54257;54.496;18.412;2023-04-07T01:54:20;100158.02;;;3.59;99.21
67373;BME280;54257;54.496;18.412;2023-04-07T01:56:48;100153.96;;;3.59;99.26
67373;BME280;54257;54.496;18.412;2023-04-07T01:59:15;100152.60;;;3.56;99.86
67373;BME280;54257;54.496;18.412;2023-04-07T02:01:43;100146.03;;;3.52;99.41
67373;BME280;54257;54.496;18.412;2023-04-07T02:06:59;100148.61;;;3.43;99.94
67373;BME280;54257;54.496;18.412;2023-04-07T02:09:29;100166.46;;;3.38;100.00
67373;BME280;54257;54.496;18.412;2023-04-07T02:11:59;100166.58;;;3.37;99.86
67373;BME280;54257;54.496;18.412;2023-04-07T02:14:31;100164.70;;;3.37;100.00
67373;BME280;54257;54.496;18.412;2023-04-07T02:17:00;100162.00;;;3.37;100.00
67373;BME280;54257;54.496;18.412;2023-04-07T02:19:28;100157.05;;;3.35;100.00
67373;BME280;54257;54.496;18.412;2023-04-07T02:21:57;100163.30;;;3.36;100.00
67373;BME280;54257;54.496;18.412;2023-04-07T02:24:27;100165.33;;;3.35;100.00
67373;BME280;54257;54.496;18.412;2023-04-07T02:26:54;100161.85;;;3.37;100.00
67373;BME280;54257;54.496;18.412;2023-04-07T02:29:22;100164.45;;;3.39;100.00
67373;BME280;54257;54.496;18.412;2023-04-07T02:31:49;100163.48;;;3.40;100.00
67373;BME280;54257;54.496;18.412;2023-04-07T02:34:16;100166.83;;;3.42;100.00
67373;BME280;54257;54.496;18.412;2023-04-07T02:36:43;100164.10;;;3.45;100.00
67373;BME280;54257;54.496;18.412;2023-04-07T02:39:11;100164.58;;;3.49;100.00
67373;BME280;54257;54.496;18.412;2023-04-07T02:41:38;100163.16;;;3.51;100.00
67373;BME280;54257;54.496;18.412;2023-04-07T02:44:05;100159.25;;;3.53;100.00
67373;BME280;54257;54.496;18.412;2023-04-07T02:46:32;100160.08;;;3.53;100.00
67373;BME280;54257;54.496;18.412;2023-04-07T02:49:00;100157.89;;;3.53;100.00
67373;BME280;54257;54.496;18.412;2023-04-07T02:51:27;100155.72;;;3.54;100.00
67373;BME280;54257;54.496;18.412;2023-04-07T02:53:54;100159.27;;;3.57;100.00
67373;BME280;54257;54.496;18.412;2023-04-07T02:56:21;100157.61;;;3.58;100.00
67373;BME280;54257;54.496;18.412;2023-04-07T02:58:48;100157.59;;;3.58;100.00
67373;BME280;54257;54.496;18.412;2023-04-07T03:01:16;100163.74;;;3.56;100.00
67373;BME280;54257;54.496;18.412;2023-04-07T03:03:43;100161.87;;;3.55;100.00
67373;BME280;54257;54.496;18.412;2023-04-07T03:06:10;100163.20;;;3.55;100.00
67373;BME280;54257;54.496;18.412;2023-04-07T03:08:37;100161.12;;;3.54;100.00
67373;BME280;54257;54.496;18.412;2023-04-07T03:11:04;100159.70;;;3.56;100.00
67373;BME280;54257;54.496;18.412;2023-04-07T03:13:32;100160.14;;;3.58;100.00
67373;BME280;54257;54.496;18.412;2023-04-07T03:15:59;100157.95;;;3.58;100.00
67373;BME280;54257;54.496;18.412;2023-04-07T03:18:26;100157.45;;;3.58;100.00
67373;BME280;54257;54.496;18.412;2023-04-07T03:20:53;100153.53;;;3.58;100.00
67373;BME280;54257;54.496;18.412;2023-04-07T03:23:22;100150.62;;;3.57;100.00
67373;BME280;54257;54.496;18.412;2023-04-07T03:25:49;100150.95;;;3.57;100.00
67373;BME280;54257;54.496;18.412;2023-04-07T03:28:17;100151.16;;;3.57;100.00
67373;BME280;54257;54.496;18.412;2023-04-07T03:30:45;100150.36;;;3.58;100.00
67373;BME280;54257;54.496;18.412;2023-04-07T03:33:12;100147.22;;;3.59;100.00
67373;BME280;54257;54.496;18.412;2023-04-07T03:35:39;100145.16;;;3.59;100.00
67373;BME280;54257;54.496;18.412;2023-04-07T03:38:08;100141.23;;;3.58;100.00
67373;BME280;54257;54.496;18.412;2023-04-07T03:40:38;100142.71;;;3.57;100.00
67373;BME280;54257;54.496;18.412;2023-04-07T03:43:06;100146.05;;;3.56;100.00
67373;BME280;54257;54.496;18.412;2023-04-07T03:45:38;100144.65;;;3.56;100.00
67373;BME280;54257;54.496;18.412;2023-04-07T03:48:05;100143.81;;;3.56;100.00
67373;BME280;54257;54.496;18.412;2023-04-07T03:50:36;100140.34;;;3.54;100.00
67373;BME280;54257;54.496;18.412;2023-04-07T03:53:04;100143.14;;;3.52;100.00
67373;BME280;54257;54.496;18.412;2023-04-07T03:55:33;100143.28;;;3.51;100.00
67373;BME280;54257;54.496;18.412;2023-04-07T03:58:00;100141.67;;;3.49;100.00
67373;BME280;54257;54.496;18.412;2023-04-07T04:00:27;100143.59;;;3.47;100.00
67373;BME280;54257;54.496;18.412;2023-04-07T04:03:01;100146.69;;;3.45;100.00
67373;BME280;54257;54.496;18.412;2023-04-07T04:05:28;100148.77;;;3.43;100.00
67373;BME280;54257;54.496;18.412;2023-04-07T04:07:56;100153.14;;;3.42;100.00
67373;BME280;54257;54.496;18.412;2023-04-07T04:10:24;100156.89;;;3.43;100.00
67373;BME280;54257;54.496;18.412;2023-04-07T04:12:51;100161.72;;;3.42;100.00
67373;BME280;54257;54.496;18.412;2023-04-07T04:15:18;100160.35;;;3.42;100.00
67373;BME280;54257;54.496;18.412;2023-04-07T04:17:45;100150.02;;;3.41;100.00
67373;BME280;54257;54.496;18.412;2023-04-07T04:20:12;100149.67;;;3.44;100.00
67373;BME280;54257;54.496;18.412;2023-04-07T04:22:40;100153.42;;;3.45;100.00
67373;BME280;54257;54.496;18.412;2023-04-07T04:25:07;100153.38;;;3.43;100.00
67373;BME280;54257;54.496;18.412;2023-04-07T04:27:35;100162.67;;;3.44;100.00
67373;BME280;54257;54.496;18.412;2023-04-07T04:30:02;100166.92;;;3.45;100.00
67373;BME280;54257;54.496;18.412;2023-04-07T04:32:30;100163.35;;;3.44;100.00
67373;BME280;54257;54.496;18.412;2023-04-07T04:34:56;100163.87;;;3.44;100.00
67373;BME280;54257;54.496;18.412;2023-04-07T04:37:24;100165.75;;;3.45;100.00
67373;BME280;54257;54.496;18.412;2023-04-07T04:39:51;100168.14;;;3.45;100.00
67373;BME280;54257;54.496;18.412;2023-04-07T04:42:18;100166.45;;;3.45;100.00
67373;BME280;54257;54.496;18.412;2023-04-07T04:44:46;100170.35;;;3.46;100.00
67373;BME280;54257;54.496;18.412;2023-04-07T04:47:15;100176.60;;;3.46;100.00
67373;BME280;54257;54.496;18.412;2023-04-07T04:49:42;100169.38;;;3.47;100.00
67373;BME280;54257;54.496;18.412;2023-04-07T04:52:09;100167.77;;;3.48;100.00
67373;BME280;54257;54.496;18.412;2023-04-07T04:54:36;100161.61;;;3.50;100.00
67373;BME280;54257;54.496;18.412;2023-04-07T04:57:03;100156.41;;;3.47;100.00
67373;BME280;54257;54.496;18.412;2023-04-07T04:59:30;100161.38;;;3.52;100.00
67373;BME280;54257;54.496;18.412;2023-04-07T05:01:57;100159.87;;;3.52;100.00
67373;BME280;54257;54.496;18.412;2023-04-07T05:04:27;100156.83;;;3.52;100.00
67373;BME280;54257;54.496;18.412;2023-04-07T05:06:54;100161.55;;;3.52;100.00
67373;BME280;54257;54.496;18.412;2023-04-07T05:09:22;100158.70;;;3.53;100.00
67373;BME280;54257;54.496;18.412;2023-04-07T05:11:49;100163.83;;;3.54;100.00
67373;BME280;54257;54.496;18.412;2023-04-07T05:14:16;100158.77;;;3.54;100.00
67373;BME280;54257;54.496;18.412;2023-04-07T05:16:43;100153.86;;;3.54;100.00
67373;BME280;54257;54.496;18.412;2023-04-07T05:19:11;100151.81;;;3.53;100.00
67373;BME280;54257;54.496;18.412;2023-04-07T05:21:40;100148.88;;;3.52;100.00
67373;BME280;54257;54.496;18.412;2023-04-07T05:24:07;100154.45;;;3.56;100.00
67373;BME280;54257;54.496;18.412;2023-04-07T05:26:34;100152.25;;;3.56;100.00
67373;BME280;54257;54.496;18.412;2023-04-07T05:29:02;100153.59;;;3.55;100.00
67373;BME280;54257;54.496;18.412;2023-04-07T05:31:29;100150.55;;;3.55;100.00
67373;BME280;54257;54.496;18.412;2023-04-07T05:33:56;100151.89;;;3.55;100.00
67373;BME280;54257;54.496;18.412;2023-04-07T05:36:23;100156.66;;;3.56;100.00
67373;BME280;54257;54.496;18.412;2023-04-07T05:38:53;100160.54;;;3.56;100.00
67373;BME280;54257;54.496;18.412;2023-04-07T05:41:22;100156.76;;;3.54;100.00
67373;BME280;54257;54.496;18.412;2023-04-07T05:43:49;100158.92;;;3.54;100.00
67373;BME280;54257;54.496;18.412;2023-04-07T05:46:16;100163.15;;;3.54;100.00
67373;BME280;54257;54.496;18.412;2023-04-07T05:48:44;100157.08;;;3.54;100.00
67373;BME280;54257;54.496;18.412;2023-04-07T05:51:11;100156.79;;;3.55;100.00
67373;BME280;54257;54.496;18.412;2023-04-07T05:53:41;100154.40;;;3.55;100.00
67373;BME280;54257;54.496;18.412;2023-04-07T05:56:11;100147.60;;;3.53;100.00
67373;BME280;54257;54.496;18.412;2023-04-07T05:58:39;100146.62;;;3.54;100.00
67373;BME280;54257;54.496;18.412;2023-04-07T06:01:08;100148.36;;;3.56;100.00
67373;BME280;54257;54.496;18.412;2023-04-07T06:03:35;100151.08;;;3.56;100.00
67373;BME280;54257;54.496;18.412;2023-04-07T06:06:02;100158.39;;;3.57;100.00
67373;BME280;54257;54.496;18.412;2023-04-07T06:08:29;100158.20;;;3.60;100.00
67373;BME280;54257;54.496;18.412;2023-04-07T06:10:56;100157.48;;;3.62;100.00
67373;BME280;54257;54.496;18.412;2023-04-07T06:13:23;100159.58;;;3.64;100.00
67373;BME280;54257;54.496;18.412;2023-04-07T06:15:50;100157.56;;;3.68;100.00
67373;BME280;54257;54.496;18.412;2023-04-07T06:18:17;100159.41;;;3.68;100.00
67373;BME280;54257;54.496;18.412;2023-04-07T06:20:45;100166.34;;;3.71;100.00
67373;BME280;54257;54.496;18.412;2023-04-07T06:23:12;100173.09;;;3.71;100.00
67373;BME280;54257;54.496;18.412;2023-04-07T06:25:39;100178.97;;;3.71;100.00
67373;BME280;54257;54.496;18.412;2023-04-07T06:28:09;100182.88;;;3.71;100.00
67373;BME280;54257;54.496;18.412;2023-04-07T06:30:36;100185.42;;;3.71;100.00
67373;BME280;54257;54.496;18.412;2023-04-07T06:33:04;100187.40;;;3.74;100.00
67373;BME280;54257;54.496;18.412;2023-04-07T06:35:34;100186.02;;;3.76;100.00
67373;BME280;54257;54.496;18.412;2023-04-07T06:38:02;100178.84;;;3.78;100.00
67373;BME280;54257;54.496;18.412;2023-04-07T06:40:29;100176.73;;;3.81;100.00
67373;BME280;54257;54.496;18.412;2023-04-07T06:42:56;100171.54;;;3.81;100.00
67373;BME280;54257;54.496;18.412;2023-04-07T06:45:24;100167.84;;;3.82;100.00
67373;BME280;54257;54.496;18.412;2023-04-07T06:47:52;100164.48;;;3.82;100.00
67373;BME280;54257;54.496;18.412;2023-04-07T06:50:19;100168.84;;;3.82;100.00
67373;BME280;54257;54.496;18.412;2023-04-07T06:52:48;100171.90;;;3.82;100.00
67373;BME280;54257;54.496;18.412;2023-04-07T06:55:15;100177.76;;;3.84;100.00
67373;BME280;54257;54.496;18.412;2023-04-07T06:57:43;100178.30;;;3.85;100.00
67373;BME280;54257;54.496;18.412;2023-04-07T07:00:10;100178.56;;;3.87;100.00
67373;BME280;54257;54.496;18.412;2023-04-07T07:02:37;100175.42;;;3.88;100.00
67373;BME280;54257;54.496;18.412;2023-04-07T07:05:05;100175.15;;;3.90;100.00
67373;BME280;54257;54.496;18.412;2023-04-07T07:07:32;100178.09;;;3.91;100.00
67373;BME280;54257;54.496;18.412;2023-04-07T07:09:59;100177.25;;;3.91;100.00
67373;BME280;54257;54.496;18.412;2023-04-07T07:12:27;100185.16;;;3.94;100.00
67373;BME280;54257;54.496;18.412;2023-04-07T07:14:54;100182.97;;;3.95;100.00
67373;BME280;54257;54.496;18.412;2023-04-07T07:17:21;100183.05;;;3.96;100.00
67373;BME280;54257;54.496;18.412;2023-04-07T07:19:48;100178.48;;;3.97;100.00
67373;BME280;54257;54.496;18.412;2023-04-07T07:22:17;100180.52;;;3.97;100.00
67373;BME280;54257;54.496;18.412;2023-04-07T07:24:47;100180.98;;;3.96;100.00
67373;BME280;54257;54.496;18.412;2023-04-07T07:27:14;100181.30;;;3.95;100.00
67373;BME280;54257;54.496;18.412;2023-04-07T07:29:41;100183.04;;;3.96;100.00
67373;BME280;54257;54.496;18.412;2023-04-07T07:32:09;100193.64;;;3.99;100.00
67373;BME280;54257;54.496;18.412;2023-04-07T07:34:36;100197.36;;;4.02;100.00
67373;BME280;54257;54.496;18.412;2023-04-07T07:37:03;100203.42;;;4.06;100.00
67373;BME280;54257;54.496;18.412;2023-04-07T07:39:30;100205.89;;;4.08;100.00
67373;BME280;54257;54.496;18.412;2023-04-07T07:41:57;100207.92;;;4.11;100.00
67373;BME280;54257;54.496;18.412;2023-04-07T07:44:24;100210.54;;;4.13;100.00
67373;BME280;54257;54.496;18.412;2023-04-07T07:46:51;100214.10;;;4.14;100.00
67373;BME280;54257;54.496;18.412;2023-04-07T07:49:18;100214.48;;;4.15;100.00
67373;BME280;54257;54.496;18.412;2023-04-07T07:51:45;100210.09;;;4.14;100.00
67373;BME280;54257;54.496;18.412;2023-04-07T07:54:12;100214.23;;;4.16;100.00
67373;BME280;54257;54.496;18.412;2023-04-07T07:56:40;100214.98;;;4.18;100.00
67373;BME280;54257;54.496;18.412;2023-04-07T07:59:07;100211.89;;;4.20;100.00
67373;BME280;54257;54.496;18.412;2023-04-07T08:01:34;100214.89;;;4.23;100.00
67373;BME280;54257;54.496;18.412;2023-04-07T08:04:02;100209.61;;;4.26;100.00
67373;BME280;54257;54.496;18.412;2023-04-07T08:06:30;100212.38;;;4.28;100.00
67373;BME280;54257;54.496;18.412;2023-04-07T08:08:59;100213.33;;;4.26;100.00
67373;BME280;54257;54.496;18.412;2023-04-07T08:11:26;100213.69;;;4.27;100.00
67373;BME280;54257;54.496;18.412;2023-04-07T08:13:53;100216.78;;;4.28;100.00
67373;BME280;54257;54.496;18.412;2023-04-07T08:16:21;100218.95;;;4.31;100.00
67373;BME280;54257;54.496;18.412;2023-04-07T08:18:49;100213.98;;;4.33;100.00
67373;BME280;54257;54.496;18.412;2023-04-07T08:21:17;100216.83;;;4.32;100.00
67373;BME280;54257;54.496;18.412;2023-04-07T08:23:48;100214.27;;;4.36;100.00
67373;BME280;54257;54.496;18.412;2023-04-07T08:26:15;100212.23;;;4.39;100.00
67373;BME280;54257;54.496;18.412;2023-04-07T08:28:42;100205.80;;;4.39;100.00
67373;BME280;54257;54.496;18.412;2023-04-07T08:31:09;100210.65;;;4.42;100.00
67373;BME280;54257;54.496;18.412;2023-04-07T08:33:39;100214.54;;;4.45;100.00
67373;BME280;54257;54.496;18.412;2023-04-07T08:36:09;100209.40;;;4.47;100.00
67373;BME280;54257;54.496;18.412;2023-04-07T08:38:39;100212.60;;;4.51;100.00
67373;BME280;54257;54.496;18.412;2023-04-07T08:41:12;100208.70;;;4.55;100.00
67373;BME280;54257;54.496;18.412;2023-04-07T08:43:40;100205.48;;;4.58;100.00
67373;BME280;54257;54.496;18.412;2023-04-07T08:46:09;100209.09;;;4.60;100.00
67373;BME280;54257;54.496;18.412;2023-04-07T08:48:42;100211.38;;;4.62;100.00
67373;BME280;54257;54.496;18.412;2023-04-07T08:51:12;100212.02;;;4.64;100.00
67373;BME280;54257;54.496;18.412;2023-04-07T08:53:48;100210.33;;;4.72;100.00
67373;BME280;54257;54.496;18.412;2023-04-07T08:56:17;100209.38;;;4.77;100.00
67373;BME280;54257;54.496;18.412;2023-04-07T08:58:47;100207.21;;;4.79;100.00
67373;BME280;54257;54.496;18.412;2023-04-07T09:01:15;100206.55;;;4.79;100.00
67373;BME280;54257;54.496;18.412;2023-04-07T09:03:43;100207.23;;;4.83;100.00
67373;BME280;54257;54.496;18.412;2023-04-07T09:06:11;100199.94;;;4.87;100.00
67373;BME280;54257;54.496;18.412;2023-04-07T09:08:39;100204.61;;;4.93;100.00
67373;BME280;54257;54.496;18.412;2023-04-07T09:11:06;100204.70;;;4.95;100.00
67373;BME280;54257;54.496;18.412;2023-04-07T09:13:33;100208.48;;;4.96;100.00
67373;BME280;54257;54.496;18.412;2023-04-07T09:16:01;100210.66;;;4.99;100.00
67373;BME280;54257;54.496;18.412;2023-04-07T09:18:29;100212.83;;;5.02;100.00
67373;BME280;54257;54.496;18.412;2023-04-07T09:20:59;100206.63;;;5.00;100.00
67373;BME280;54257;54.496;18.412;2023-04-07T09:23:41;100210.08;;;5.02;100.00
67373;BME280;54257;54.496;18.412;2023-04-07T09:26:26;100207.14;;;5.04;100.00
67373;BME280;54257;54.496;18.412;2023-04-07T09:28:59;100204.74;;;5.11;100.00
67373;BME280;54257;54.496;18.412;2023-04-07T09:31:46;100202.31;;;5.19;100.00
67373;BME280;54257;54.496;18.412;2023-04-07T09:34:28;100196.95;;;5.20;100.00
67373;BME280;54257;54.496;18.412;2023-04-07T09:36:56;100194.80;;;5.21;100.00
67373;BME280;54257;54.496;18.412;2023-04-07T09:39:26;100194.14;;;5.25;100.00
67373;BME280;54257;54.496;18.412;2023-04-07T09:41:54;100193.83;;;5.30;100.00
67373;BME280;54257;54.496;18.412;2023-04-07T09:44:21;100193.89;;;5.36;100.00
67373;BME280;54257;54.496;18.412;2023-04-07T09:46:57;100194.40;;;5.40;100.00
67373;BME280;54257;54.496;18.412;2023-04-07T09:49:25;100201.69;;;5.44;100.00
67373;BME280;54257;54.496;18.412;2023-04-07T09:51:58;100195.30;;;5.49;100.00
67373;BME280;54257;54.496;18.412;2023-04-07T09:54:39;100193.21;;;5.56;100.00
67373;BME280;54257;54.496;18.412;2023-04-07T09:57:08;100197.79;;;5.65;100.00
67373;BME280;54257;54.496;18.412;2023-04-07T09:59:38;100189.58;;;5.76;100.00
67373;BME280;54257;54.496;18.412;2023-04-07T10:02:06;100183.86;;;5.89;100.00
67373;BME280;54257;54.496;18.412;2023-04-07T10:04:33;100178.50;;;6.04;100.00
67373;BME280;54257;54.496;18.412;2023-04-07T10:07:00;100184.33;;;6.14;100.00
67373;BME280;54257;54.496;18.412;2023-04-07T10:09:29;100182.61;;;6.23;100.00
67373;BME280;54257;54.496;18.412;2023-04-07T10:11:58;100186.57;;;6.29;100.00
67373;BME280;54257;54.496;18.412;2023-04-07T10:14:29;100183.37;;;6.34;100.00
67373;BME280;54257;54.496;18.412;2023-04-07T10:16:59;100185.80;;;6.40;100.00
67373;BME280;54257;54.496;18.412;2023-04-07T10:19:30;100189.50;;;6.49;100.00
67373;BME280;54257;54.496;18.412;2023-04-07T10:21:59;100191.21;;;6.54;100.00
67373;BME280;54257;54.496;18.412;2023-04-07T10:27:22;100196.35;;;6.60;100.00
67373;BME280;54257;54.496;18.412;2023-04-07T10:29:53;100194.11;;;6.63;100.00
67373;BME280;54257;54.496;18.412;2023-04-07T10:32:23;100195.49;;;6.68;100.00
67373;BME280;54257;54.496;18.412;2023-04-07T10:37:24;100198.96;;;6.81;100.00
67373;BME280;54257;54.496;18.412;2023-04-07T10:42:45;100194.28;;;6.87;99.74
67373;BME280;54257;54.496;18.412;2023-04-07T10:45:15;100195.70;;;6.89;99.42
67373;BME280;54257;54.496;18.412;2023-04-07T10:50:25;100190.42;;;6.93;98.39
67373;BME280;54257;54.496;18.412;2023-04-07T10:53:11;100190.17;;;6.96;98.29
67373;BME280;54257;54.496;18.412;2023-04-07T10:55:42;100191.45;;;7.03;98.62
67373;BME280;54257;54.496;18.412;2023-04-07T10:58:20;100195.06;;;7.10;98.18
67373;BME280;54257;54.496;18.412;2023-04-07T11:03:39;100201.70;;;7.06;96.44
67373;BME280;54257;54.496;18.412;2023-04-07T11:06:08;100204.02;;;7.04;96.52
67373;BME280;54257;54.496;18.412;2023-04-07T11:08:38;100202.42;;;7.07;96.66
67373;BME280;54257;54.496;18.412;2023-04-07T11:11:06;100202.10;;;7.12;97.10
67373;BME280;54257;54.496;18.412;2023-04-07T11:13:41;100203.30;;;7.17;96.51
67373;BME280;54257;54.496;18.412;2023-04-07T11:16:09;100201.79;;;7.17;95.60
67373;BME280;54257;54.496;18.412;2023-04-07T11:18:36;100204.83;;;7.17;95.37
67373;BME280;54257;54.496;18.412;2023-04-07T11:21:04;100200.54;;;7.21;95.90
67373;BME280;54257;54.496;18.412;2023-04-07T11:23:39;100194.25;;;7.26;95.40
67373;BME280;54257;54.496;18.412;2023-04-07T11:26:09;100191.74;;;7.27;94.87
67373;BME280;54257;54.496;18.412;2023-04-07T11:28:48;100189.48;;;7.31;95.22
67373;BME280;54257;54.496;18.412;2023-04-07T11:31:28;100181.16;;;7.41;95.58
67373;BME280;54257;54.496;18.412;2023-04-07T11:34:01;100181.98;;;7.51;95.69
67373;BME280;54257;54.496;18.412;2023-04-07T11:38:59;100183.53;;;7.73;95.50
67373;BME280;54257;54.496;18.412;2023-04-07T11:41:29;100181.73;;;7.86;95.79
67373;BME280;54257;54.496;18.412;2023-04-07T11:44:10;100180.56;;;7.98;94.89
67373;BME280;54257;54.496;18.412;2023-04-07T11:49:24;100174.81;;;8.33;95.58
67373;BME280;54257;54.496;18.412;2023-04-07T11:52:01;100173.62;;;8.50;95.27
67373;BME280;54257;54.496;18.412;2023-04-07T11:54:42;100171.02;;;8.66;94.46
67373;BME280;54257;54.496;18.412;2023-04-07T11:57:10;100168.24;;;8.83;94.17
67373;BME280;54257;54.496;18.412;2023-04-07T11:59:39;100172.59;;;9.06;92.94
67373;BME280;54257;54.496;18.412;2023-04-07T12:02:30;100165.58;;;9.18;90.68
67373;BME280;54257;54.496;18.412;2023-04-07T12:04:59;100165.29;;;9.27;88.81
67373;BME280;54257;54.496;18.412;2023-04-07T12:07:28;100165.98;;;9.28;87.08
67373;BME280;54257;54.496;18.412;2023-04-07T12:09:55;100162.41;;;9.28;87.44
67373;BME280;54257;54.496;18.412;2023-04-07T12:12:29;100165.87;;;9.37;86.70
67373;BME280;54257;54.496;18.412;2023-04-07T12:15:02;100165.54;;;9.51;87.24
67373;BME280;54257;54.496;18.412;2023-04-07T12:17:31;100163.77;;;9.70;86.17
67373;BME280;54257;54.496;18.412;2023-04-07T12:19:59;100164.12;;;9.85;84.31
67373;BME280;54257;54.496;18.412;2023-04-07T12:22:27;100163.44;;;10.00;85.39
67373;BME280;54257;54.496;18.412;2023-04-07T12:24:54;100160.14;;;10.14;83.94
67373;BME280;54257;54.496;18.412;2023-04-07T12:27:21;100164.75;;;10.37;85.32
67373;BME280;54257;54.496;18.412;2023-04-07T12:29:49;100165.67;;;10.57;82.82
67373;BME280;54257;54.496;18.412;2023-04-07T12:32:16;100167.65;;;10.62;81.14
67373;BME280;54257;54.496;18.412;2023-04-07T12:34:43;100167.98;;;10.70;81.49
67373;BME280;54257;54.496;18.412;2023-04-07T12:37:11;100163.27;;;10.83;80.30
67373;BME280;54257;54.496;18.412;2023-04-07T12:39:38;100165.13;;;11.00;80.93
67373;BME280;54257;54.496;18.412;2023-04-07T12:42:05;100163.44;;;11.21;80.88
67373;BME280;54257;54.496;18.412;2023-04-07T12:44:34;100160.74;;;11.34;78.82
67373;BME280;54257;54.496;18.412;2023-04-07T12:47:02;100161.55;;;11.40;78.10
67373;BME280;54257;54.496;18.412;2023-04-07T12:49:29;100160.33;;;11.50;78.16
67373;BME280;54257;54.496;18.412;2023-04-07T12:51:58;100159.23;;;11.66;76.44
67373;BME280;54257;54.496;18.412;2023-04-07T12:54:25;100155.48;;;11.67;75.11
67373;BME280;54257;54.496;18.412;2023-04-07T12:56:52;100159.03;;;11.76;75.33
67373;BME280;54257;54.496;18.412;2023-04-07T12:59:19;100159.86;;;11.83;73.92
67373;BME280;54257;54.496;18.412;2023-04-07T13:01:46;100161.30;;;11.89;73.09
67373;BME280;54257;54.496;18.412;2023-04-07T13:04:13;100161.58;;;11.84;71.13
67373;BME280;54257;54.496;18.412;2023-04-07T13:06:40;100166.95;;;11.79;71.57
67373;BME280;54257;54.496;18.412;2023-04-07T13:09:08;100168.25;;;11.74;72.04
67373;BME280;54257;54.496;18.412;2023-04-07T13:11:36;100170.19;;;11.78;72.06
67373;BME280;54257;54.496;18.412;2023-04-07T13:14:04;100171.70;;;11.86;72.14
67373;BME280;54257;54.496;18.412;2023-04-07T13:16:44;100173.95;;;11.89;71.22
67373;BME280;54257;54.496;18.412;2023-04-07T13:19:11;100174.63;;;11.87;69.79
67373;BME280;54257;54.496;18.412;2023-04-07T13:21:39;100174.79;;;11.77;69.06